Time;durP1;ratioP1;P1;durP2;ratioP2;P2;SDS_P1;SDS_P2;PMS_P1;PMS_P2;Temp;Humidity;BMP_temperature;BMP_pressure;BME280_temperature;BME280_humidity;BME280_pressure;Samples;Min_cycle;Max_cycle;Signal;HPM_P1;HPM_P2
2022/08/22 00:00:22;;;;;;;7.10;3.33;;;16.50;99.90;;;;;;5083960;28;20044;-65
2022/08/22 00:03:02;;;;;;;8.52;3.70;;;16.30;99.90;;;;;;5080612;28;20510;-65
2022/08/22 00:05:36;;;;;;;6.95;3.55;;;16.30;99.90;;;;;;5073024;28;20028;-64
2022/08/22 00:08:37;;;;;;;8.80;4.38;;;16.30;99.90;;;;;;5091463;28;20043;-65
2022/08/22 00:11:24;;;;;;;10.70;4.47;;;16.30;99.90;;;;;;5059813;28;20087;-65
2022/08/22 00:14:04;;;;;;;9.00;4.35;;;16.30;99.90;;;;;;5091005;28;20044;-64
2022/08/22 00:16:42;;;;;;;9.98;4.30;;;16.30;99.90;;;;;;5091032;28;20040;-64
2022/08/22 00:19:21;;;;;;;9.60;5.07;;;16.30;99.90;;;;;;5085308;28;20047;-65
2022/08/22 00:21:56;;;;;;;6.40;3.53;;;16.30;99.90;;;;;;5090894;28;20032;-64
2022/08/22 00:24:33;;;;;;;5.72;3.80;;;16.20;99.90;;;;;;5091112;28;20105;-65
2022/08/22 00:27:07;;;;;;;6.63;4.15;;;16.20;99.90;;;;;;5068146;28;20440;-65
2022/08/22 00:29:40;;;;;;;7.80;3.83;;;16.20;99.90;;;;;;5090918;28;20098;-65
2022/08/22 00:32:12;;;;;;;6.82;3.53;;;16.20;99.90;;;;;;5070618;28;20033;-64
2022/08/22 00:35:28;;;;;;;7.30;4.05;;;16.10;99.90;;;;;;5069642;28;20045;-65
2022/08/22 00:38:20;;;;;;;7.13;3.70;;;16.00;99.90;;;;;;5087341;28;20056;-64
2022/08/22 00:40:55;;;;;;;7.38;3.83;;;15.90;99.90;;;;;;5090826;28;20085;-64
2022/08/22 00:43:48;;;;;;;7.25;4.03;;;15.90;99.90;;;;;;5086673;28;20127;-64
2022/08/22 00:46:32;;;;;;;8.70;4.20;;;16.00;99.90;;;;;;5089199;28;20036;-65
2022/08/22 00:49:20;;;;;;;7.68;4.20;;;16.00;99.90;;;;;;5090647;28;20036;-64
2022/08/22 00:52:12;;;;;;;8.23;3.95;;;16.00;99.90;;;;;;5036545;28;20051;-66
2022/08/22 00:54:53;;;;;;;8.32;3.58;;;16.00;99.90;;;;;;5088424;28;20075;-65
2022/08/22 00:57:18;;;;;;;14.50;5.40;;;15.90;99.90;;;;;;5070654;28;20557;-65
2022/08/22 01:00:08;;;;;;;12.60;4.70;;;15.90;99.90;;;;;;5063794;28;20140;-66
2022/08/22 01:02:58;;;;;;;9.48;4.05;;;15.90;99.90;;;;;;5085878;28;20054;-64
2022/08/22 01:05:37;;;;;;;7.38;3.72;;;15.80;99.90;;;;;;5070064;28;20078;-65
2022/08/22 01:08:33;;;;;;;7.10;4.15;;;15.70;99.90;;;;;;5078175;28;20127;-65
2022/08/22 01:11:30;;;;;;;6.20;3.72;;;15.60;99.90;;;;;;5080017;28;20063;-65
2022/08/22 01:14:05;;;;;;;6.70;4.32;;;15.70;99.90;;;;;;5071980;28;20452;-64
2022/08/22 01:16:33;;;;;;;9.30;4.32;;;15.60;99.90;;;;;;5090530;28;20438;-65
2022/08/22 01:19:10;;;;;;;9.23;4.47;;;15.60;99.90;;;;;;5078286;28;20071;-65
2022/08/22 01:21:54;;;;;;;8.48;4.40;;;15.60;99.90;;;;;;5085867;28;20044;-65
2022/08/22 01:24:25;;;;;;;12.00;5.20;;;15.60;99.90;;;;;;5051910;28;20150;-64
2022/08/22 01:27:14;;;;;;;8.73;5.50;;;15.60;99.90;;;;;;5074461;28;20032;-65
2022/08/22 01:30:10;;;;;;;9.63;5.60;;;15.60;99.90;;;;;;5086460;28;20047;-65
2022/08/22 01:32:47;;;;;;;8.48;5.60;;;15.70;99.90;;;;;;5069648;28;20045;-64
2022/08/22 01:35:35;;;;;;;12.50;5.18;;;15.70;99.90;;;;;;5072853;28;20136;-64
2022/08/22 01:38:17;;;;;;;12.43;5.75;;;15.70;99.90;;;;;;5089271;28;20494;-64
2022/08/22 01:41:12;;;;;;;8.23;5.35;;;15.70;99.90;;;;;;5089970;28;20055;-64
2022/08/22 01:44:08;;;;;;;9.20;5.00;;;15.60;99.90;;;;;;5079010;28;20128;-66
2022/08/22 01:46:42;;;;;;;10.70;4.90;;;15.50;99.90;;;;;;5084918;28;20028;-64
2022/08/22 01:49:17;;;;;;;9.48;5.43;;;15.40;99.90;;;;;;5088539;28;20044;-64
2022/08/22 01:52:28;;;;;;;8.65;5.63;;;15.50;99.90;;;;;;5084207;28;20115;-64
2022/08/22 01:55:05;;;;;;;12.52;5.90;;;15.40;99.90;;;;;;5006267;28;20080;-65
2022/08/22 01:57:31;;;;;;;12.68;5.88;;;15.30;99.90;;;;;;5076412;28;20066;-65
2022/08/22 02:00:00;;;;;;;6.15;4.60;;;15.30;99.90;;;;;;5082604;28;20036;-64
2022/08/22 02:02:26;;;;;;;15.60;5.93;;;15.20;99.90;;;;;;5085964;28;20024;-65
2022/08/22 02:04:51;;;;;;;12.77;6.10;;;15.20;99.90;;;;;;5088908;28;20044;-64
2022/08/22 02:07:29;;;;;;;7.57;5.55;;;15.20;99.90;;;;;;5089619;28;20028;-64
2022/08/22 02:10:27;;;;;;;14.73;7.28;;;15.20;99.90;;;;;;5075939;28;20044;-66
2022/08/22 02:13:11;;;;;;;11.82;7.30;;;15.30;99.90;;;;;;5054449;28;20127;-64
2022/08/22 02:15:40;;;;;;;19.30;8.13;;;15.40;99.90;;;;;;5083593;28;20050;-65
2022/08/22 02:18:05;;;;;;;14.95;7.85;;;15.50;99.90;;;;;;5079689;28;20032;-66
2022/08/22 02:21:10;;;;;;;15.23;7.57;;;15.60;99.90;;;;;;5088926;28;20063;-65
2022/08/22 02:23:44;;;;;;;13.65;7.03;;;15.70;99.90;;;;;;5088037;28;20059;-66
2022/08/22 02:26:45;;;;;;;12.73;7.13;;;15.80;99.90;;;;;;5081990;28;20035;-65
2022/08/22 02:29:16;;;;;;;12.10;6.60;;;15.80;99.90;;;;;;5082745;28;20036;-66
2022/08/22 02:32:02;;;;;;;;;;;15.90;99.90;;;;;;5086573;28;20044;-65
2022/08/22 02:34:47;;;;;;;11.50;6.47;;;15.90;99.90;;;;;;5070760;28;20006;-64
2022/08/22 02:37:20;;;;;;;15.63;7.32;;;15.90;99.90;;;;;;5081563;28;20101;-65
2022/08/22 02:40:31;;;;;;;11.10;7.05;;;15.90;99.90;;;;;;5086524;28;20085;-65
2022/08/22 02:43:19;;;;;;;12.30;6.65;;;15.90;99.90;;;;;;5053153;28;20052;-64
2022/08/22 02:45:52;;;;;;;9.13;6.40;;;15.90;99.90;;;;;;5088446;28;20146;-65
2022/08/22 02:48:30;;;;;;;12.80;6.82;;;15.90;99.90;;;;;;5080569;28;20035;-64
2022/08/22 02:51:34;;;;;;;11.35;7.82;;;15.90;99.90;;;;;;5086376;28;20040;-65
2022/08/22 02:54:25;;;;;;;10.15;6.53;;;15.90;99.90;;;;;;5007035;28;20045;-65
2022/08/22 02:57:05;;;;;;;10.07;6.40;;;15.90;99.90;;;;;;5081384;28;20070;-66
2022/08/22 02:59:36;;;;;;;11.60;5.93;;;15.80;99.90;;;;;;5078677;28;20047;-65
2022/08/22 03:02:23;;;;;;;11.50;7.35;;;15.80;99.90;;;;;;5088116;28;20063;-65
2022/08/22 03:04:58;;;;;;;13.25;7.65;;;15.70;99.90;;;;;;5088921;28;20108;-65
2022/08/22 03:07:28;;;;;;;12.13;7.82;;;15.70;99.90;;;;;;5076357;28;20036;-65
2022/08/22 03:10:36;;;;;;;13.05;7.03;;;15.70;99.90;;;;;;5087031;28;20036;-65
2022/08/22 03:13:32;;;;;;;14.98;7.20;;;15.80;99.90;;;;;;4986535;28;20042;-64
2022/08/22 03:16:05;;;;;;;14.30;7.57;;;15.70;99.90;;;;;;4934090;28;20086;-64
2022/08/22 03:18:46;;;;;;;12.63;7.05;;;15.80;99.90;;;;;;5063113;28;20082;-65
2022/08/22 03:21:29;;;;;;;10.52;6.65;;;15.80;99.90;;;;;;5088770;28;20050;-65
2022/08/22 03:24:06;;;;;;;12.23;7.15;;;15.70;99.90;;;;;;5073816;28;20053;-65
2022/08/22 03:26:48;;;;;;;10.95;6.60;;;15.70;99.90;;;;;;5088681;28;20087;-65
2022/08/22 03:29:23;;;;;;;14.27;6.70;;;15.70;99.90;;;;;;5068483;28;20032;-65
2022/08/22 03:32:10;;;;;;;9.63;6.13;;;15.60;99.90;;;;;;5068674;28;20033;-65
2022/08/22 03:34:37;;;;;;;18.33;7.50;;;15.60;99.90;;;;;;5088127;28;20046;-65
2022/08/22 03:37:18;;;;;;;14.68;7.20;;;15.60;99.90;;;;;;5087916;28;20655;-65
2022/08/22 03:39:57;;;;;;;15.18;6.85;;;15.60;99.90;;;;;;5078722;28;20050;-65
2022/08/22 03:42:47;;;;;;;15.68;8.18;;;15.60;99.90;;;;;;5084672;28;20456;-65
2022/08/22 03:45:39;;;;;;;11.88;7.43;;;15.60;99.90;;;;;;5068827;28;20495;-65
2022/08/22 03:48:07;;;;;;;;;;;15.60;99.90;;;;;;5076271;28;20043;-65
2022/08/22 03:50:45;;;;;;;12.85;6.55;;;15.60;99.90;;;;;;5088118;28;20483;-64
2022/08/22 03:53:45;;;;;;;14.95;7.20;;;15.50;99.90;;;;;;5062529;28;20055;-66
2022/08/22 03:56:44;;;;;;;13.38;6.88;;;15.60;99.90;;;;;;5080832;28;20040;-65
2022/08/22 03:59:18;;;;;;;18.77;6.40;;;15.60;99.90;;;;;;5082625;28;20060;-64
2022/08/22 04:02:00;;;;;;;14.30;6.90;;;15.70;99.90;;;;;;5088434;28;20044;-65
2022/08/22 04:05:06;;;;;;;15.85;6.25;;;15.80;99.90;;;;;;5083814;28;20035;-65
2022/08/22 04:08:04;;;;;;;13.00;5.90;;;15.80;99.90;;;;;;5083061;28;20032;-64
2022/08/22 04:10:51;;;;;;;18.48;6.80;;;15.90;99.90;;;;;;5079984;28;20659;-66
2022/08/22 04:13:45;;;;;;;12.90;6.50;;;15.90;99.90;;;;;;5077527;28;20047;-65
2022/08/22 04:16:13;;;;;;;13.38;6.00;;;15.90;99.90;;;;;;5080710;28;20051;-65
2022/08/22 04:18:49;;;;;;;11.35;5.85;;;15.90;99.90;;;;;;5088208;28;20040;-65
2022/08/22 04:21:36;;;;;;;14.80;5.40;;;15.80;99.90;;;;;;5081186;28;20032;-66
2022/08/22 04:24:17;;;;;;;9.40;6.05;;;15.90;99.90;;;;;;5087160;28;20068;-66
2022/08/22 04:27:03;;;;;;;8.13;5.43;;;15.80;99.90;;;;;;5088043;28;20610;-65
2022/08/22 04:29:40;;;;;;;10.43;5.80;;;15.80;99.90;;;;;;5079208;28;20029;-65
2022/08/22 04:32:13;;;;;;;16.75;5.40;;;15.80;99.90;;;;;;5076707;28;20054;-66
2022/08/22 04:34:54;;;;;;;12.20;6.15;;;15.80;99.90;;;;;;5087299;28;20097;-66
2022/08/22 04:37:40;;;;;;;12.35;6.60;;;15.80;99.90;;;;;;5084682;28;20494;-65
2022/08/22 04:40:33;;;;;;;11.45;5.88;;;15.90;99.90;;;;;;5076416;28;20032;-66
2022/08/22 04:43:23;;;;;;;15.80;6.18;;;15.90;99.90;;;;;;5086443;28;20051;-66
2022/08/22 04:46:07;;;;;;;13.13;5.88;;;15.90;99.90;;;;;;5059146;28;20052;-65
2022/08/22 04:48:42;;;;;;;12.80;6.10;;;15.90;99.90;;;;;;5083051;28;20032;-66
2022/08/22 04:51:23;;;;;;;13.07;6.22;;;16.00;99.90;;;;;;5087468;28;20066;-65
2022/08/22 04:54:30;;;;;;;14.18;6.43;;;16.00;99.90;;;;;;5091102;28;20456;-65
2022/08/22 04:57:11;;;;;;;14.38;6.00;;;16.00;99.90;;;;;;5017504;28;20075;-65
2022/08/22 04:59:38;;;;;;;11.23;6.03;;;16.00;99.90;;;;;;5086189;28;20044;-65
2022/08/22 05:02:08;;;;;;;14.80;6.18;;;16.00;99.90;;;;;;5082051;28;20127;-65
2022/08/22 05:04:39;;;;;;;10.65;6.50;;;16.10;99.90;;;;;;5076647;28;20122;-66
2022/08/22 05:07:14;;;;;;;;;;;16.10;99.90;;;;;;5083562;28;20036;-65
2022/08/22 05:09:46;;;;;;;14.55;6.38;;;16.10;99.90;;;;;;5090823;28;20369;-65
2022/08/22 05:12:21;;;;;;;19.33;7.43;;;16.10;99.90;;;;;;5086887;28;20394;-65
2022/08/22 05:14:58;;;;;;;14.07;6.22;;;16.10;99.90;;;;;;5084626;28;20044;-67
2022/08/22 05:17:28;;;;;;;13.80;6.28;;;16.20;99.90;;;;;;5085135;28;20032;-65
2022/08/22 05:19:57;;;;;;;15.10;6.68;;;16.20;99.90;;;;;;5074412;28;20036;-65
2022/08/22 05:22:34;;;;;;;15.15;6.47;;;16.20;99.90;;;;;;5088457;28;20111;-66
2022/08/22 05:25:11;;;;;;;11.27;6.30;;;16.30;99.90;;;;;;5082538;28;20040;-66
2022/08/22 05:28:10;;;;;;;11.05;6.07;;;16.30;99.90;;;;;;5082180;28;20032;-66
2022/08/22 05:30:37;;;;;;;11.43;5.82;;;16.40;99.90;;;;;;5082274;28;20047;-65
2022/08/22 05:33:29;;;;;;;12.13;6.07;;;16.40;99.90;;;;;;5086478;28;20092;-66
2022/08/22 05:36:07;;;;;;;18.77;6.88;;;16.40;99.90;;;;;;5089855;28;20090;-67
2022/08/22 05:38:36;;;;;;;15.43;6.40;;;16.50;99.90;;;;;;5077759;28;20477;-65
2022/08/22 05:41:08;;;;;;;14.00;6.13;;;16.50;99.90;;;;;;5089694;28;20141;-66
2022/08/22 05:43:39;;;;;;;15.48;5.78;;;16.60;99.90;;;;;;5090870;28;20153;-64
2022/08/22 05:46:11;;;;;;;13.35;6.75;;;16.60;99.90;;;;;;5079397;28;20032;-65
2022/08/22 05:48:44;;;;;;;17.70;6.70;;;16.60;99.90;;;;;;5088532;28;20565;-66
2022/08/22 05:51:29;;;;;;;13.73;6.78;;;16.70;99.90;;;;;;5052639;28;20040;-65
2022/08/22 05:54:10;;;;;;;11.60;6.13;;;16.60;99.90;;;;;;5057539;28;20108;-65
2022/08/22 05:57:05;;;;;;;;;;;16.70;99.90;;;;;;5057750;28;20040;-66
2022/08/22 05:59:34;;;;;;;12.05;6.05;;;16.70;99.90;;;;;;5071342;28;20394;-66
2022/08/22 06:02:08;;;;;;;13.38;6.70;;;16.70;99.90;;;;;;5089647;28;20119;-67
2022/08/22 06:04:57;;;;;;;13.45;5.90;;;16.80;99.90;;;;;;5089995;28;20040;-66
2022/08/22 06:07:41;;;;;;;13.88;6.75;;;16.80;99.90;;;;;;5079242;28;20034;-65
2022/08/22 06:10:17;;;;;;;16.00;6.38;;;16.80;99.90;;;;;;5078018;28;20036;-67
2022/08/22 06:13:13;;;;;;;19.02;7.10;;;16.90;99.90;;;;;;5086482;28;20068;-66
2022/08/22 06:16:15;;;;;;;16.75;6.30;;;16.90;99.90;;;;;;5088071;28;20047;-66
2022/08/22 06:18:43;;;;;;;13.05;5.93;;;17.00;99.90;;;;;;5081937;28;20036;-66
2022/08/22 06:21:16;;;;;;;18.40;6.95;;;17.00;99.90;;;;;;5089337;28;20925;-68
2022/08/22 06:23:56;;;;;;;10.07;6.18;;;17.10;99.90;;;;;;5089897;28;20070;-67
2022/08/22 06:26:25;;;;;;;13.95;6.55;;;17.10;99.90;;;;;;5087280;28;20024;-67
2022/08/22 06:28:54;;;;;;;13.32;6.65;;;17.20;99.90;;;;;;5085504;28;20036;-67
2022/08/22 06:31:30;;;;;;;11.38;6.38;;;17.20;99.90;;;;;;5075078;28;20590;-66
2022/08/22 06:34:13;;;;;;;15.77;7.00;;;17.20;99.90;;;;;;5088624;28;20077;-68
2022/08/22 06:36:45;;;;;;;15.65;6.63;;;17.30;99.90;;;;;;5089418;28;20423;-68
2022/08/22 06:39:14;;;;;;;15.25;6.80;;;17.40;99.90;;;;;;5083917;28;20102;-67
2022/08/22 06:41:46;;;;;;;16.13;7.20;;;17.50;99.90;;;;;;5087596;28;20040;-69
2022/08/22 06:44:15;;;;;;;14.15;6.80;;;17.50;99.90;;;;;;5073151;28;20036;-68
2022/08/22 06:46:43;;;;;;;13.70;6.65;;;17.60;99.90;;;;;;5078799;28;20047;-66
2022/08/22 06:49:10;;;;;;;12.73;6.78;;;17.60;99.90;;;;;;5078543;28;20088;-66
2022/08/22 06:51:38;;;;;;;15.90;7.15;;;17.70;99.90;;;;;;5086148;28;20118;-67
2022/08/22 06:54:10;;;;;;;12.10;6.63;;;17.70;99.90;;;;;;5083374;28;20032;-67
2022/08/22 06:56:42;;;;;;;13.32;6.82;;;17.80;99.90;;;;;;5063916;28;20068;-67
2022/08/22 06:59:13;;;;;;;11.13;6.28;;;17.80;99.90;;;;;;5073362;28;20062;-66
2022/08/22 07:02:06;;;;;;;9.88;6.25;;;17.90;99.90;;;;;;5066292;28;20398;-67
2022/08/22 07:04:32;;;;;;;12.13;6.13;;;17.90;99.90;;;;;;5081383;28;20040;-67
2022/08/22 07:07:00;;;;;;;11.98;6.13;;;17.90;99.90;;;;;;5087530;28;20059;-67
2022/08/22 07:09:39;;;;;;;14.70;6.25;;;18.00;99.90;;;;;;5069972;28;20044;-67
2022/08/22 07:12:17;;;;;;;16.60;6.72;;;18.00;99.90;;;;;;5064569;28;20074;-68
2022/08/22 07:14:47;;;;;;;17.77;6.47;;;18.10;99.90;;;;;;5068073;28;20086;-67
2022/08/22 07:17:23;;;;;;;13.98;6.40;;;18.10;99.90;;;;;;5083391;28;20044;-66
2022/08/22 07:20:02;;;;;;;15.95;6.25;;;18.20;99.90;;;;;;5067265;28;20040;-67
2022/08/22 07:22:31;;;;;;;15.18;6.20;;;18.30;99.90;;;;;;5084811;28;20040;-66
2022/08/22 07:25:07;;;;;;;13.25;6.35;;;18.30;99.90;;;;;;5088301;28;20032;-65
2022/08/22 07:27:55;;;;;;;15.23;5.72;;;18.40;99.90;;;;;;5079663;28;20036;-65
2022/08/22 07:30:25;;;;;;;13.93;6.10;;;18.50;99.90;;;;;;5082016;28;20024;-66
2022/08/22 07:33:00;;;;;;;16.23;6.07;;;18.50;99.90;;;;;;5086781;28;20032;-65
2022/08/22 07:35:28;;;;;;;11.73;5.45;;;18.60;99.90;;;;;;5083118;28;20383;-66
2022/08/22 07:37:53;;;;;;;12.05;5.40;;;18.70;99.90;;;;;;5087910;28;20120;-65
2022/08/22 07:40:48;;;;;;;17.23;5.90;;;18.70;99.90;;;;;;5088203;28;20081;-67
2022/08/22 07:43:28;;;;;;;14.30;5.93;;;18.80;99.90;;;;;;5080135;28;20108;-66
2022/08/22 07:46:15;;;;;;;15.82;5.60;;;18.90;99.90;;;;;;5081032;28;20040;-65
2022/08/22 07:48:50;;;;;;;12.32;5.78;;;18.90;99.90;;;;;;5088576;28;20051;-67
2022/08/22 07:51:22;;;;;;;14.77;5.90;;;19.00;99.90;;;;;;5077526;28;20032;-67
2022/08/22 07:53:58;;;;;;;9.90;5.38;;;19.10;99.90;;;;;;5072767;28;20434;-67
2022/08/22 07:56:29;;;;;;;15.38;5.47;;;19.20;99.90;;;;;;5088288;28;20040;-66
2022/08/22 07:59:04;;;;;;;11.87;5.53;;;19.30;99.90;;;;;;5066452;28;20475;-67
2022/08/22 08:01:31;;;;;;;11.45;5.28;;;19.30;99.90;;;;;;5068453;28;20589;-66
2022/08/22 08:04:07;;;;;;;14.77;5.05;;;19.50;99.90;;;;;;5087414;28;20127;-68
2022/08/22 08:06:33;;;;;;;8.85;4.95;;;19.50;99.90;;;;;;5079303;28;20051;-67
2022/08/22 08:09:00;;;;;;;13.52;5.10;;;19.60;99.90;;;;;;5079929;28;20439;-68
2022/08/22 08:11:31;;;;;;;10.25;4.70;;;19.70;99.90;;;;;;5087045;28;20120;-68
2022/08/22 08:14:00;;;;;;;11.60;4.50;;;19.80;99.90;;;;;;5087467;28;20082;-67
2022/08/22 08:16:38;;;;;;;11.27;4.57;;;19.80;99.90;;;;;;5080519;28;20048;-68
2022/08/22 08:19:07;;;;;;;10.25;4.80;;;19.80;99.90;;;;;;5083490;28;20036;-66
2022/08/22 08:21:38;;;;;;;12.27;4.50;;;19.90;99.90;;;;;;5085818;28;20059;-67
2022/08/22 08:24:07;;;;;;;15.50;5.13;;;19.90;99.90;;;;;;5088119;28;20032;-66
2022/08/22 08:28:32;;;;;;;12.70;4.72;;;20.00;99.90;;;;;;5091817;28;20064;-66
2022/08/22 08:29:28;;;;;;;13.95;5.00;;;20.10;99.90;;;;;;5085639;28;20134;-65
2022/08/22 08:31:54;;;;;;;9.45;4.35;;;20.20;99.90;;;;;;5086708;28;20063;-65
2022/08/22 08:34:24;;;;;;;12.55;4.05;;;20.20;99.90;;;;;;5087462;28;20070;-66
2022/08/22 08:37:13;;;;;;;14.07;5.07;;;20.30;99.90;;;;;;5091547;28;20521;-66
2022/08/22 08:39:51;;;;;;;10.93;4.63;;;20.30;99.90;;;;;;5089507;28;20031;-66
2022/08/22 08:45:50;;;;;;;10.82;4.35;;;20.30;99.90;;;;;;5091174;28;20048;-66
2022/08/22 08:48:48;;;;;;;12.18;4.35;;;20.20;99.90;;;;;;5087822;28;20615;-66
2022/08/22 08:51:32;;;;;;;10.05;4.30;;;20.20;99.90;;;;;;5083945;28;20117;-66
2022/08/22 08:54:25;;;;;;;12.85;4.95;;;20.30;99.90;;;;;;5070914;28;20147;-66
2022/08/22 08:57:39;;;;;;;11.45;4.35;;;20.30;99.90;;;;;;5086472;28;20033;-66
2022/08/22 09:00:08;;;;;;;14.73;4.50;;;20.30;99.90;;;;;;5051833;28;20040;-66
2022/08/22 09:02:54;;;;;;;9.77;3.83;;;20.30;99.90;;;;;;5083864;28;20098;-66
2022/08/22 09:05:45;;;;;;;9.98;4.22;;;20.30;99.90;;;;;;5082187;28;20104;-67
2022/08/22 09:08:41;;;;;;;8.63;3.72;;;20.30;99.90;;;;;;5081212;28;20039;-67
2022/08/22 09:11:12;;;;;;;11.15;4.05;;;20.40;99.90;;;;;;5082924;28;20093;-66
2022/08/22 09:13:50;;;;;;;10.90;3.90;;;20.50;99.90;;;;;;5080067;28;20035;-68
2022/08/22 09:16:47;;;;;;;8.50;3.70;;;20.60;99.90;;;;;;5076494;28;20036;-66
2022/08/22 09:19:50;;;;;;;8.85;3.30;;;20.70;99.90;;;;;;5076126;28;20059;-66
2022/08/22 09:22:16;;;;;;;9.85;3.78;;;20.90;99.90;;;;;;5088517;28;20169;-66
2022/08/22 09:24:51;;;;;;;10.45;3.78;;;21.00;99.90;;;;;;5079051;28;20036;-66
2022/08/22 09:27:44;;;;;;;7.93;3.08;;;21.10;99.90;;;;;;5090903;28;20028;-66
2022/08/22 09:30:15;;;;;;;12.02;3.63;;;21.10;99.90;;;;;;5067639;28;20078;-67
2022/08/22 09:33:02;;;;;;;9.95;3.30;;;21.30;99.90;;;;;;5077721;28;20048;-67
2022/08/22 09:35:49;;;;;;;9.60;3.55;;;21.30;99.90;;;;;;5085071;28;20482;-66
2022/08/22 09:38:35;;;;;;;10.93;3.42;;;21.40;99.90;;;;;;5067870;28;20059;-67
2022/08/22 09:41:13;;;;;;;9.60;3.30;;;21.50;99.90;;;;;;5073527;28;20199;-67
2022/08/22 09:44:10;;;;;;;10.05;3.40;;;21.60;99.90;;;;;;5090231;28;20036;-66
2022/08/22 09:47:05;;;;;;;8.68;3.85;;;21.70;99.90;;;;;;5071215;28;20125;-65
2022/08/22 09:49:40;;;;;;;12.35;3.35;;;21.70;99.90;;;;;;5088483;28;20048;-66
2022/08/22 09:52:25;;;;;;;9.32;3.30;;;21.80;99.90;;;;;;5071289;28;20044;-66
2022/08/22 09:55:08;;;;;;;13.80;4.07;;;22.00;99.90;;;;;;5090422;28;20124;-65
2022/08/22 09:57:49;;;;;;;7.78;3.35;;;22.10;99.90;;;;;;5077434;28;20032;-66
2022/08/22 10:00:21;;;;;;;9.23;3.38;;;22.10;99.90;;;;;;5083127;28;20067;-66
2022/08/22 10:02:49;;;;;;;10.05;3.17;;;22.10;99.90;;;;;;5089568;28;20040;-68
2022/08/22 10:05:30;;;;;;;10.60;3.50;;;22.20;99.90;;;;;;5078488;28;20040;-67
2022/08/22 10:08:37;;;;;;;9.15;3.50;;;22.30;99.90;;;;;;5089693;28;20036;-67
2022/08/22 10:11:24;;;;;;;6.93;3.10;;;22.40;99.90;;;;;;5076177;28;20173;-67
2022/08/22 10:14:02;;;;;;;12.25;3.30;;;22.40;99.10;;;;;;5086661;28;20036;-67
2022/08/22 10:16:55;;;;;;;9.60;3.55;;;22.50;99.90;;;;;;5050279;28;20634;-67
2022/08/22 10:19:35;;;;;;;31.60;4.00;;;22.60;99.50;;;;;;5083497;28;20040;-67
2022/08/22 10:22:38;;;;;;;26.17;4.55;;;22.80;99.90;;;;;;5080961;28;20036;-68
2022/08/22 10:25:21;;;;;;;45.95;5.47;;;22.90;98.30;;;;;;5089351;28;20124;-68
2022/08/22 10:28:11;;;;;;;10.85;3.80;;;23.00;99.20;;;;;;5069407;28;20036;-69
2022/08/22 10:30:47;;;;;;;16.52;2.78;;;23.10;98.30;;;;;;5059509;28;20039;-68
2022/08/22 10:33:19;;;;;;;8.82;2.80;;;23.20;97.60;;;;;;5081069;28;20455;-69
2022/08/22 10:35:50;;;;;;;9.02;3.20;;;23.30;99.90;;;;;;5089567;28;20676;-67
2022/08/22 10:38:27;;;;;;;9.68;3.30;;;23.30;97.10;;;;;;5082716;28;20043;-68
2022/08/22 10:41:36;;;;;;;8.60;2.80;;;23.40;99.10;;;;;;5068338;28;20036;-67
2022/08/22 10:44:08;;;;;;;8.90;3.10;;;23.50;96.70;;;;;;5072455;28;20055;-67
2022/08/22 10:47:05;;;;;;;8.05;3.08;;;23.60;99.90;;;;;;5076514;28;20047;-67
2022/08/22 10:49:50;;;;;;;5.15;3.00;;;23.60;95.90;;;;;;5082698;28;20107;-68
2022/08/22 10:52:30;;;;;;;7.18;2.65;;;23.70;97.50;;;;;;5087411;28;20036;-68
2022/08/22 10:55:16;;;;;;;6.88;3.20;;;23.90;99.40;;;;;;5076503;28;20139;-68
2022/08/22 10:58:03;;;;;;;8.18;3.22;;;23.70;96.40;;;;;;5082770;28;20044;-68
2022/08/22 11:00:50;;;;;;;8.50;3.40;;;23.60;95.00;;;;;;5071651;28;20040;-68
2022/08/22 11:03:20;;;;;;;9.38;3.40;;;23.40;98.50;;;;;;5084461;28;20075;-68
2022/08/22 11:05:48;;;;;;;11.87;3.97;;;23.20;98.70;;;;;;5087832;28;20232;-68
2022/08/22 11:08:32;;;;;;;8.32;3.58;;;23.10;99.90;;;;;;5088033;28;20032;-67
2022/08/22 11:11:10;;;;;;;8.52;3.70;;;23.00;98.10;;;;;;5076295;28;20040;-66
2022/08/22 11:14:05;;;;;;;8.18;3.40;;;22.90;99.70;;;;;;5085886;28;20063;-66
2022/08/22 11:16:49;;;;;;;10.23;3.60;;;22.90;99.70;;;;;;5067856;28;20036;-66
2022/08/22 11:19:41;;;;;;;8.98;3.13;;;22.90;99.10;;;;;;5088326;28;20390;-66
2022/08/22 11:22:25;;;;;;;10.75;3.80;;;23.00;99.90;;;;;;5080585;28;20036;-66
2022/08/22 11:25:15;;;;;;;10.20;3.80;;;23.10;99.90;;;;;;5089558;22;20063;-66
2022/08/22 11:27:46;;;;;;;8.10;3.60;;;23.30;99.90;;;;;;5087223;28;20541;-66
2022/08/22 11:30:19;;;;;;;10.80;3.97;;;23.60;99.90;;;;;;5084627;28;20032;-66
2022/08/22 11:33:16;;;;;;;7.55;3.85;;;23.90;99.90;;;;;;5084292;28;20020;-66
2022/08/22 11:36:04;;;;;;;10.68;3.20;;;24.00;99.70;;;;;;5073588;28;20051;-66
2022/08/22 11:38:57;;;;;;;8.25;3.78;;;24.30;99.90;;;;;;5049528;28;20056;-66
2022/08/22 11:41:45;;;;;;;7.57;3.80;;;24.30;99.30;;;;;;5051547;28;20040;-64
2022/08/22 11:44:14;;;;;;;9.70;3.83;;;24.40;99.90;;;;;;5069043;28;20076;-64
2022/08/22 11:46:43;;;;;;;10.32;4.20;;;24.40;99.90;;;;;;5076551;28;20444;-64
2022/08/22 11:49:17;;;;;;;7.75;4.00;;;24.50;99.90;;;;;;5068259;28;20033;-64
2022/08/22 11:52:07;;;;;;;7.35;3.22;;;24.70;99.10;;;;;;5067235;28;20036;-64
2022/08/22 11:54:58;;;;;;;16.00;4.10;;;24.80;98.60;;;;;;5050103;28;20079;-65
2022/08/22 11:57:36;;;;;;;9.38;4.10;;;25.00;99.90;;;;;;5071806;28;20490;-64
2022/08/22 12:00:21;;;;;;;8.27;4.20;;;25.30;99.20;;;;;;5070321;28;20068;-64
2022/08/22 12:03:05;;;;;;;8.68;3.75;;;25.40;98.80;;;;;;5061484;28;20048;-64
2022/08/22 12:05:56;;;;;;;9.80;4.13;;;25.30;97.30;;;;;;5071981;28;20410;-64
2022/08/22 12:08:28;;;;;;;8.52;4.43;;;25.20;96.10;;;;;;5062859;28;20044;-63
2022/08/22 12:11:02;;;;;;;10.05;4.32;;;25.00;98.80;;;;;;5069808;28;20040;-64
2022/08/22 12:13:33;;;;;;;11.98;4.40;;;25.00;98.50;;;;;;5072926;28;20044;-64
2022/08/22 12:16:18;;;;;;;9.32;4.50;;;25.00;99.10;;;;;;5053710;28;20052;-64
2022/08/22 12:18:58;;;;;;;10.70;4.40;;;25.00;96.50;;;;;;5071576;28;20032;-64
2022/08/22 12:21:45;;;;;;;10.82;3.70;;;24.90;98.00;;;;;;5071226;28;20028;-63
2022/08/22 12:24:41;;;;;;;12.85;4.07;;;25.10;98.40;;;;;;5068137;28;20520;-63
2022/08/22 12:27:22;;;;;;;9.30;4.97;;;25.10;97.60;;;;;;5071209;28;20052;-63
2022/08/22 12:30:13;;;;;;;9.68;4.63;;;25.00;96.30;;;;;;5053500;28;20049;-63
2022/08/22 12:32:53;;;;;;;9.63;4.70;;;25.10;96.30;;;;;;5070235;28;20541;-63
2022/08/22 12:35:49;;;;;;;9.75;4.40;;;25.40;97.50;;;;;;5070023;28;20037;-63
2022/08/22 12:39:05;;;;;;;8.95;3.97;;;25.60;96.20;;;;;;5071325;28;20708;-64
2022/08/22 12:41:46;;;;;;;9.90;3.85;;;25.90;95.60;;;;;;5053452;28;20403;-64
2022/08/22 12:44:25;;;;;;;9.18;3.92;;;26.10;96.70;;;;;;5070882;28;20052;-63
2022/08/22 12:46:59;;;;;;;9.52;4.20;;;26.00;95.70;;;;;;5071488;28;20120;-64
2022/08/22 12:49:28;;;;;;;10.27;4.30;;;26.20;96.20;;;;;;5073800;28;20036;-64
2022/08/22 12:51:56;;;;;;;11.13;4.13;;;26.40;96.10;;;;;;5075877;28;20029;-63
2022/08/22 12:54:37;;;;;;;8.73;3.80;;;26.30;95.60;;;;;;5070077;28;20113;-64
2022/08/22 12:57:12;;;;;;;11.48;5.07;;;26.40;96.30;;;;;;5071095;28;20394;-64
2022/08/22 12:59:43;;;;;;;7.38;3.83;;;26.40;96.50;;;;;;5077219;28;20097;-63
2022/08/22 13:02:27;;;;;;;10.18;3.95;;;26.40;97.20;;;;;;5076690;28;20047;-63
2022/08/22 13:05:08;;;;;;;7.03;4.50;;;26.50;97.80;;;;;;5071071;28;20036;-63
2022/08/22 13:07:35;;;;;;;11.07;4.53;;;26.30;96.40;;;;;;5072200;28;20040;-63
2022/08/22 13:10:33;;;;;;;13.90;3.95;;;26.00;97.20;;;;;;5078909;28;20216;-63
2022/08/22 13:13:00;;;;;;;9.82;3.63;;;26.10;94.90;;;;;;5064635;28;20051;-63
2022/08/22 13:15:34;;;;;;;10.80;4.43;;;26.40;97.70;;;;;;5073019;28;20403;-63
2022/08/22 13:18:03;;;;;;;9.48;4.88;;;26.70;96.10;;;;;;5081697;28;20043;-63
2022/08/22 13:20:36;;;;;;;8.07;3.70;;;27.00;96.00;;;;;;5070838;28;20035;-63
2022/08/22 13:23:13;;;;;;;11.27;4.18;;;27.20;94.80;;;;;;5070940;28;20486;-63
2022/08/22 13:26:00;;;;;;;12.35;3.65;;;27.40;95.20;;;;;;5080953;28;20509;-64
2022/08/22 13:28:28;;;;;;;12.20;4.38;;;27.60;95.00;;;;;;5070695;28;20162;-64
2022/08/22 13:30:56;;;;;;;9.27;4.47;;;27.70;94.50;;;;;;5070455;28;20071;-64
2022/08/22 13:33:26;;;;;;;17.50;5.05;;;27.60;93.80;;;;;;5075030;28;20131;-64
2022/08/22 13:36:01;;;;;;;15.13;4.72;;;27.40;93.30;;;;;;5070057;28;20453;-64
2022/08/22 13:39:04;;;;;;;13.43;3.90;;;27.10;93.20;;;;;;5072718;28;20048;-64
2022/08/22 13:41:35;;;;;;;9.55;3.70;;;27.10;91.80;;;;;;5081386;28;20494;-63
2022/08/22 13:44:03;;;;;;;9.20;3.75;;;27.00;94.30;;;;;;5081706;28;20044;-67
2022/08/22 13:46:31;;;;;;;7.45;3.55;;;26.90;95.00;;;;;;5080341;28;20119;-66
2022/08/22 13:48:59;;;;;;;11.27;3.85;;;26.90;95.20;;;;;;5078240;28;20060;-66
2022/08/22 13:51:34;;;;;;;6.43;3.10;;;26.90;94.90;;;;;;5083979;28;20031;-66